Time;durP1;ratioP1;P1;durP2;ratioP2;P2;SDS_P1;SDS_P2;PMS_P1;PMS_P2;Temp;Humidity;BMP_temperature;BMP_pressure;BME280_temperature;BME280_humidity;BME280_pressure;Samples;Min_cycle;Max_cycle;Signal;HPM_P1;HPM_P2
2022/02/16 00:00:16;;;;;;;18.17;9.15;;;;;;;3.36;91.49;95287.69;5044396;28;20056;-50
2022/02/16 00:02:43;;;;;;;18.15;9.75;;;;;;;3.50;90.14;95284.34;5045168;28;20060;-46
2022/02/16 00:05:11;;;;;;;17.98;9.15;;;;;;;3.53;89.25;95286.56;5044146;28;20052;-45
2022/02/16 00:07:42;;;;;;;15.52;8.15;;;;;;;3.61;88.97;95283.91;5042407;28;20049;-45
2022/02/16 00:10:12;;;;;;;14.93;8.13;;;;;;;3.63;88.30;95268.28;5046409;28;20140;-48
2022/02/16 00:12:40;;;;;;;14.80;7.95;;;;;;;3.63;88.11;95273.44;5044398;28;20057;-47
2022/02/16 00:15:09;;;;;;;13.45;7.70;;;;;;;3.61;87.77;95281.31;5042883;28;20095;-47
2022/02/16 00:17:36;;;;;;;15.45;9.18;;;;;;;3.59;88.05;95288.44;5044592;28;20048;-48
2022/02/16 00:20:04;;;;;;;21.80;9.85;;;;;;;3.45;88.05;95271.19;5045901;28;20049;-45
2022/02/16 00:22:31;;;;;;;20.80;10.00;;;;;;;3.43;88.52;95279.09;5043379;28;20548;-46
2022/02/16 00:24:58;;;;;;;23.25;9.45;;;;;;;3.32;89.06;95286.44;5046644;28;20045;-49
2022/02/16 00:27:25;;;;;;;16.90;8.80;;;;;;;3.29;88.80;95292.72;5044913;28;20057;-47
2022/02/16 00:29:51;;;;;;;13.40;7.45;;;;;;;3.21;89.00;95296.19;5043716;28;20091;-48
2022/02/16 00:32:18;;;;;;;20.88;9.50;;;;;;;3.13;89.17;95288.50;5044192;28;20096;-46
2022/02/16 00:34:45;;;;;;;22.25;10.50;;;;;;;3.08;89.49;95295.97;5041964;28;20037;-51
2022/02/16 00:37:12;;;;;;;18.88;9.65;;;;;;;3.00;89.72;95290.88;5045887;28;20076;-46
2022/02/16 00:39:39;;;;;;;17.95;8.75;;;;;;;2.97;89.63;95293.78;5041845;28;20067;-49
2022/02/16 00:42:05;;;;;;;21.98;9.85;;;;;;;2.87;89.86;95299.97;5046318;28;20044;-46
2022/02/16 00:44:32;;;;;;;16.92;8.77;;;;;;;2.77;89.71;95298.59;5042682;28;20107;-47
2022/02/16 00:47:01;;;;;;;16.92;9.13;;;;;;;2.77;90.04;95304.53;5044889;28;20048;-46
2022/02/16 00:49:29;;;;;;;18.52;8.93;;;;;;;2.71;90.17;95307.00;5041443;28;20557;-47
2022/02/16 00:51:56;;;;;;;18.25;9.48;;;;;;;2.64;90.70;95299.16;5044395;28;20056;-49
2022/02/16 00:54:29;;;;;;;21.63;9.52;;;;;;;2.61;90.88;95305.44;5042753;28;20152;-46
2022/02/16 00:57:01;;;;;;;17.45;9.48;;;;;;;2.48;91.52;95300.84;5041199;28;20053;-46
2022/02/16 00:59:29;;;;;;;28.40;9.95;;;;;;;2.35;92.67;95292.88;5043234;28;20143;-46
2022/02/16 01:01:58;;;;;;;27.38;11.70;;;;;;;2.34;92.45;95278.44;5046355;28;20044;-48
2022/02/16 01:04:25;;;;;;;38.03;15.55;;;;;;;2.42;92.33;95291.22;5059815;28;20041;-46
2022/02/16 01:06:55;;;;;;;47.95;18.25;;;;;;;2.40;92.56;95303.44;5043534;28;20048;-47
2022/02/16 01:09:22;;;;;;;37.83;17.38;;;;;;;2.25;93.65;95300.78;5043805;28;20059;-46
2022/02/16 01:11:51;;;;;;;34.10;14.32;;;;;;;2.21;94.26;95293.56;5041622;28;20590;-47
2022/02/16 01:14:20;;;;;;;30.70;12.52;;;;;;;2.18;94.88;95296.47;5042083;28;20094;-45
2022/02/16 01:17:09;;;;;;;24.67;13.05;;;;;;;2.15;95.14;95291.69;5057888;28;20041;-46
2022/02/16 01:19:50;;;;;;;23.90;12.85;;;;;;;1.88;97.46;95279.06;5042154;28;20049;-50
2022/02/16 01:22:17;;;;;;;24.88;10.95;;;;;;;1.83;97.18;95275.41;5042404;28;20063;-47
2022/02/16 01:24:44;;;;;;;25.48;12.32;;;;;;;1.82;97.21;95284.06;5041825;28;20608;-49
2022/02/16 01:27:12;;;;;;;23.40;12.15;;;;;;;1.74;97.17;95271.25;5044211;28;20483;-46
2022/02/16 01:29:39;;;;;;;24.05;9.98;;;;;;;1.71;97.22;95273.19;5041957;28;20745;-45
2022/02/16 01:32:20;;;;;;;29.17;10.57;;;;;;;1.67;97.11;95266.78;5043433;28;20457;-47
2022/02/16 01:34:47;;;;;;;22.17;11.07;;;;;;;1.65;96.77;95263.56;5041467;28;20052;-45
2022/02/16 01:37:14;;;;;;;23.67;10.10;;;;;;;1.59;96.61;95259.09;5040992;28;20106;-46
2022/02/16 01:39:41;;;;;;;22.00;10.65;;;;;;;1.48;97.36;95272.28;5042323;28;20131;-46
2022/02/16 01:42:17;;;;;;;24.73;11.43;;;;;;;1.34;100.00;95271.97;5043895;28;20049;-46
2022/02/16 01:44:50;;;;;;;23.98;10.18;;;;;;;1.41;99.31;95261.06;5044105;28;20080;-46
2022/02/16 01:47:17;;;;;;;19.20;10.80;;;;;;;1.39;98.94;95252.72;5049270;28;20049;-45
2022/02/16 01:49:45;;;;;;;23.20;11.65;;;;;;;1.37;99.15;95250.34;5048114;28;20053;-45
2022/02/16 01:52:16;;;;;;;23.83;11.05;;;;;;;1.33;99.12;95244.72;5047034;28;20106;-47
2022/02/16 01:54:46;;;;;;;24.35;11.20;;;;;;;1.32;98.84;95235.41;5050668;28;20044;-47
2022/02/16 01:57:13;;;;;;;19.48;10.00;;;;;;;1.29;99.08;95217.75;5048587;28;20055;-47
2022/02/16 01:59:47;;;;;;;19.52;9.73;;;;;;;1.27;99.09;95219.69;5049812;28;20041;-46
2022/02/16 02:02:42;;;;;;;20.85;11.93;;;;;;;1.29;99.36;95217.75;5048457;28;20057;-49
2022/02/16 02:05:41;;;;;;;24.77;11.75;;;;;;;1.16;100.00;95232.88;5041328;28;20100;-50
2022/02/16 02:08:11;;;;;;;19.85;12.35;;;;;;;1.17;100.00;95221.66;5050339;28;20051;-46
2022/02/16 02:10:38;;;;;;;27.52;12.65;;;;;;;1.17;100.00;95224.22;5044750;28;20133;-46
2022/02/16 02:13:05;;;;;;;32.25;13.88;;;;;;;1.19;100.00;95227.44;5049627;28;20132;-46
2022/02/16 02:15:41;;;;;;;23.50;11.95;;;;;;;1.20;100.00;95212.81;5046086;28;20052;-48
2022/02/16 02:18:25;;;;;;;23.90;11.18;;;;;;;1.19;100.00;95227.44;5047933;28;20041;-47
2022/02/16 02:20:52;;;;;;;25.38;12.35;;;;;;;1.14;100.00;95224.53;5048283;28;20037;-47
2022/02/16 02:23:20;;;;;;;35.92;13.32;;;;;;;1.11;100.00;95219.72;5061051;28;20052;-46
2022/02/16 02:25:50;;;;;;;29.90;13.95;;;;;;;1.11;100.00;95224.84;5049930;28;21901;-46
2022/02/16 02:28:20;;;;;;;29.90;13.20;;;;;;;1.11;100.00;95209.47;5049372;28;20103;-48
2022/02/16 02:30:47;;;;;;;29.95;12.48;;;;;;;1.05;100.00;95210.13;5047564;28;20107;-48
2022/02/16 02:33:15;;;;;;;21.92;10.75;;;;;;;1.04;100.00;95218.78;5047045;28;20508;-48
2022/02/16 02:35:43;;;;;;;22.88;11.75;;;;;;;0.98;100.00;95219.44;5048490;28;20415;-48
2022/02/16 02:38:09;;;;;;;20.13;11.05;;;;;;;0.99;100.00;95226.16;5049746;28;20040;-49
2022/02/16 02:40:36;;;;;;;26.67;14.27;;;;;;;0.92;100.00;95218.31;5049326;28;20122;-47
2022/02/16 02:43:07;;;;;;;19.77;10.43;;;;;;;0.93;100.00;95218.13;5047181;28;20045;-48
2022/02/16 02:45:42;;;;;;;18.45;10.18;;;;;;;0.90;100.00;95213.34;5045715;28;20071;-46
2022/02/16 02:48:08;;;;;;;17.98;10.20;;;;;;;0.85;100.00;95215.59;5046998;28;20045;-46
2022/02/16 02:50:35;;;;;;;23.25;8.80;;;;;;;0.80;100.00;95215.25;5051988;28;20049;-48
2022/02/16 02:53:02;;;;;;;16.90;7.93;;;;;;;0.78;100.00;95224.09;5045975;28;20052;-47
2022/02/16 02:55:30;;;;;;;14.57;8.63;;;;;;;0.83;100.00;95230.34;5060076;28;20475;-46
2022/02/16 02:57:57;;;;;;;16.90;8.95;;;;;;;0.76;100.00;95226.81;5049394;28;20514;-48
2022/02/16 03:00:24;;;;;;;16.30;8.63;;;;;;;0.79;100.00;95231.59;5047776;28;20115;-47
2022/02/16 03:02:53;;;;;;;14.10;7.38;;;;;;;0.69;100.00;95220.72;5047892;28;20044;-48
2022/02/16 03:05:20;;;;;;;18.88;7.45;;;;;;;0.61;100.00;95223.25;5048314;28;20131;-48
2022/02/16 03:07:47;;;;;;;14.20;7.93;;;;;;;0.64;100.00;95222.94;5048233;28;20537;-47
2022/02/16 03:10:14;;;;;;;17.33;8.90;;;;;;;0.68;100.00;95229.34;5046544;28;20049;-51
2022/02/16 03:12:41;;;;;;;12.55;7.32;;;;;;;0.67;100.00;95227.78;5047237;28;20044;-47
2022/02/16 03:15:10;;;;;;;16.45;8.32;;;;;;;0.67;100.00;95227.78;5044661;28;20091;-50
2022/02/16 03:17:42;;;;;;;17.05;7.60;;;;;;;0.72;100.00;95221.19;5051129;28;20056;-47
2022/02/16 03:20:10;;;;;;;14.23;7.35;;;;;;;0.74;100.00;95233.88;5045184;28;20045;-46
2022/02/16 03:22:40;;;;;;;16.15;8.43;;;;;;;0.76;100.00;95226.81;5046707;28;20076;-48
2022/02/16 03:25:10;;;;;;;16.48;8.10;;;;;;;0.77;100.00;95220.69;5046437;28;20445;-46
2022/02/16 03:27:37;;;;;;;15.63;7.28;;;;;;;0.78;100.00;95214.63;5058275;28;20130;-47
2022/02/16 03:30:09;;;;;;;15.60;7.45;;;;;;;0.74;100.00;95208.22;5047391;28;20048;-47
2022/02/16 03:32:52;;;;;;;16.38;9.20;;;;;;;0.75;100.00;95204.69;5046679;28;20049;-48
2022/02/16 03:35:19;;;;;;;14.45;8.57;;;;;;;0.74;100.00;95213.34;5045827;28;20045;-48
2022/02/16 03:37:47;;;;;;;18.60;9.35;;;;;;;0.83;100.00;95202.13;5046637;28;20056;-48
2022/02/16 03:40:15;;;;;;;17.10;9.07;;;;;;;0.87;100.00;95200.84;5050905;28;20045;-46
2022/02/16 03:42:42;;;;;;;16.55;9.65;;;;;;;0.91;100.00;95193.63;5044663;28;20048;-47
2022/02/16 03:45:09;;;;;;;20.25;10.63;;;;;;;0.92;100.00;95206.28;5046649;28;20040;-47
2022/02/16 03:47:55;;;;;;;22.23;9.80;;;;;;;0.92;100.00;95206.28;5048025;28;20044;-46
2022/02/16 03:50:23;;;;;;;21.00;9.35;;;;;;;0.95;100.00;95221.38;5045535;28;20073;-46
2022/02/16 03:52:52;;;;;;;17.33;9.25;;;;;;;1.00;100.00;95227.75;5048452;28;20079;-46
2022/02/16 03:55:20;;;;;;;25.55;11.57;;;;;;;1.09;100.00;95244.75;5050829;28;20041;-48
2022/02/16 03:57:47;;;;;;;36.22;12.48;;;;;;;1.17;100.00;95244.75;5047954;28;20049;-47
2022/02/16 04:00:16;;;;;;;25.00;12.95;;;;;;;1.06;100.00;95227.09;5046888;28;20731;-48
2022/02/16 04:02:49;;;;;;;35.60;15.98;;;;;;;0.82;100.00;95218.47;5044667;28;20111;-46
2022/02/16 04:05:15;;;;;;;31.27;12.95;;;;;;;0.61;100.00;95228.38;5063560;28;20045;-48
2022/02/16 04:07:44;;;;;;;32.17;15.95;;;;;;;0.23;100.00;95231.38;5044235;28;20072;-47
2022/02/16 04:10:12;;;;;;;39.78;17.75;;;;;;;0.06;100.00;95230.53;5048708;28;20045;-47
2022/02/16 04:12:40;;;;;;;47.08;20.92;;;;;;;-0.04;100.00;95214.50;5046342;28;20080;-46
2022/02/16 04:15:08;;;;;;;43.17;18.55;;;;;;;0.01;100.00;95207.16;5043548;28;20044;-47
2022/02/16 04:17:39;;;;;;;50.10;23.10;;;;;;;0.14;100.00;95217.75;5043732;28;20131;-46
2022/02/16 04:20:11;;;;;;;44.70;21.02;;;;;;;0.10;100.00;95216.44;5042834;28;20098;-47
2022/02/16 04:22:44;;;;;;;42.63;23.33;;;;;;;0.18;100.00;95207.97;5042860;28;20045;-50
2022/02/16 04:25:14;;;;;;;43.55;21.30;;;;;;;0.14;100.00;95197.25;5042370;28;20098;-48
2022/02/16 04:27:43;;;;;;;39.97;19.38;;;;;;;0.30;100.00;95216.19;5040912;28;20049;-48
2022/02/16 04:30:10;;;;;;;39.33;19.58;;;;;;;0.29;100.00;95214.56;5043947;28;20458;-46
2022/02/16 04:32:38;;;;;;;41.47;19.80;;;;;;;0.32;100.00;95219.38;5047459;28;20086;-51
2022/02/16 04:35:07;;;;;;;38.80;16.63;;;;;;;0.36;100.00;95205.28;5044036;28;20051;-48
2022/02/16 04:37:34;;;;;;;36.20;17.13;;;;;;;0.38;100.00;95208.53;5044499;28;20056;-46
2022/02/16 04:40:02;;;;;;;40.47;17.35;;;;;;;0.42;100.00;95191.06;5044288;28;20048;-47
2022/02/16 04:42:31;;;;;;;31.08;17.25;;;;;;;0.55;100.00;95199.88;5057366;28;20055;-47
2022/02/16 04:44:59;;;;;;;40.58;17.30;;;;;;;0.63;100.00;95205.97;5059812;28;20060;-48
2022/02/16 04:47:26;;;;;;;26.38;15.00;;;;;;;0.69;100.00;95189.94;5046353;28;20138;-51
2022/02/16 04:49:53;;;;;;;35.30;16.20;;;;;;;0.78;100.00;95199.25;5058969;28;20048;-49
2022/02/16 04:52:20;;;;;;;33.38;16.20;;;;;;;0.86;100.00;95201.78;5047292;28;20056;-50
2022/02/16 04:54:46;;;;;;;48.55;22.55;;;;;;;0.88;100.00;95199.88;5043497;28;20037;-47
2022/02/16 04:57:14;;;;;;;46.97;19.58;;;;;;;0.98;100.00;95198.91;5044330;28;20727;-47
2022/02/16 04:59:46;;;;;;;52.38;21.83;;;;;;;1.08;100.00;95189.25;5042007;28;20417;-50
2022/02/16 05:02:13;;;;;;;43.47;21.83;;;;;;;1.03;100.00;95191.53;5040912;28;20045;-46
2022/02/16 05:04:39;;;;;;;132.25;47.15;;;;;;;1.05;100.00;95210.13;5044750;28;20044;-46
2022/02/16 05:07:06;;;;;;;107.68;43.78;;;;;;;1.05;100.00;95199.88;5044473;28;20045;-46
2022/02/16 05:09:33;;;;;;;62.90;27.25;;;;;;;1.12;100.00;95211.09;5045225;28;20045;-48
2022/02/16 05:12:00;;;;;;;64.00;29.48;;;;;;;1.17;100.00;95196.00;5044763;28;20045;-47
2022/02/16 05:14:27;;;;;;;82.75;35.92;;;;;;;1.22;100.00;95196.28;5044066;28;20514;-46
2022/02/16 05:16:57;;;;;;;78.93;38.03;;;;;;;1.29;100.00;95188.75;5043727;28;20045;-46
2022/02/16 05:19:24;;;;;;;73.82;34.33;;;;;;;1.31;100.00;95190.19;5047139;28;20059;-48
2022/02/16 05:21:54;;;;;;;55.65;24.83;;;;;;;1.33;100.00;95183.13;5047082;28;20049;-47
2022/02/16 05:24:25;;;;;;;55.20;24.15;;;;;;;1.34;100.00;95178.78;5058913;28;20049;-47
2022/02/16 05:26:52;;;;;;;53.80;24.33;;;;;;;1.36;100.00;95181.19;5059360;28;20828;-50
2022/02/16 05:29:19;;;;;;;44.38;23.08;;;;;;;1.37;100.00;95180.22;5048634;28;20080;-51
2022/02/16 05:31:52;;;;;;;50.78;24.17;;;;;;;1.38;100.00;95184.41;5063702;28;20130;-48
2022/02/16 05:34:21;;;;;;;52.75;23.30;;;;;;;1.38;100.00;95184.41;5043193;28;20180;-51
2022/02/16 05:36:48;;;;;;;52.75;26.38;;;;;;;1.36;100.00;95186.34;5059037;28;20164;-46
2022/02/16 05:39:16;;;;;;;66.65;29.00;;;;;;;1.37;100.00;95178.47;5044513;28;20049;-48
2022/02/16 05:41:43;;;;;;;52.60;26.38;;;;;;;1.34;100.00;95184.72;5058348;28;20116;-46
2022/02/16 05:44:10;;;;;;;59.17;26.38;;;;;;;1.38;100.00;95179.25;5046145;28;20051;-46
2022/02/16 05:46:37;;;;;;;40.92;22.13;;;;;;;1.45;100.00;95185.34;5043385;28;20497;-47
2022/02/16 05:49:08;;;;;;;51.17;23.88;;;;;;;1.56;100.00;95187.53;5043104;28;20041;-46
2022/02/16 05:51:35;;;;;;;49.55;22.38;;;;;;;1.56;100.00;95187.53;5059655;28;20048;-52
2022/02/16 05:54:04;;;;;;;78.30;29.52;;;;;;;1.56;100.00;95192.66;5064774;28;20040;-46
2022/02/16 05:56:32;;;;;;;74.32;33.50;;;;;;;1.61;100.00;95195.53;5044449;28;20991;-49
2022/02/16 05:58:59;;;;;;;62.75;26.85;;;;;;;1.70;100.00;95191.19;5043149;28;20119;-47
2022/02/16 06:01:26;;;;;;;51.72;25.52;;;;;;;1.69;100.00;95203.22;5044698;28;20399;-47
2022/02/16 06:03:57;;;;;;;53.40;26.13;;;;;;;1.76;100.00;95203.34;5058886;28;20488;-48
2022/02/16 06:06:25;;;;;;;49.13;25.73;;;;;;;1.70;100.00;95209.97;5043068;28;20041;-46
2022/02/16 06:08:53;;;;;;;52.75;22.55;;;;;;;1.70;100.00;95209.97;5043082;28;20049;-47
2022/02/16 06:11:20;;;;;;;52.45;24.30;;;;;;;1.66;100.00;95213.84;5042804;28;20045;-51
2022/02/16 06:13:52;;;;;;;47.22;20.98;;;;;;;1.68;100.00;95206.75;5043338;28;20041;-51
2022/02/16 06:16:20;;;;;;;42.85;20.27;;;;;;;1.77;100.00;95199.03;5041742;28;20049;-47
2022/02/16 06:18:47;;;;;;;45.63;20.52;;;;;;;1.88;100.00;95190.94;5045941;28;20049;-48
2022/02/16 06:21:14;;;;;;;40.13;19.20;;;;;;;1.96;100.00;95183.19;5045538;28;20040;-47
2022/02/16 06:23:45;;;;;;;37.70;18.42;;;;;;;2.06;100.00;95188.94;5043825;28;20037;-47
2022/02/16 06:26:13;;;;;;;42.08;18.92;;;;;;;2.15;100.00;95201.75;5046973;28;20041;-47
2022/02/16 06:28:41;;;;;;;47.25;22.48;;;;;;;2.26;100.00;95214.19;5044337;28;20049;-48
2022/02/16 06:31:11;;;;;;;48.13;22.60;;;;;;;2.34;100.00;95216.72;5044461;28;20045;-47
2022/02/16 06:33:39;;;;;;;71.82;39.03;;;;;;;2.46;100.00;95212.78;5049436;28;20048;-46
2022/02/16 06:36:07;;;;;;;59.13;29.08;;;;;;;2.57;100.00;95210.78;5047542;28;20044;-46
2022/02/16 06:38:35;;;;;;;55.53;27.10;;;;;;;2.57;100.00;95203.06;5047268;28;20476;-47
2022/02/16 06:41:06;;;;;;;60.65;30.00;;;;;;;2.75;100.00;95208.72;5045060;28;20417;-46
2022/02/16 06:43:33;;;;;;;69.90;32.17;;;;;;;2.82;100.00;95208.84;5053002;28;20147;-49
2022/02/16 06:46:00;;;;;;;56.70;28.10;;;;;;;2.91;100.00;95212.16;5045995;28;20048;-46
2022/02/16 06:48:28;;;;;;;89.03;47.30;;;;;;;2.69;100.00;95222.28;5055039;28;20461;-48
2022/02/16 06:50:55;;;;;;;80.40;38.70;;;;;;;2.77;100.00;95214.47;5045137;28;20103;-48
2022/02/16 06:53:22;;;;;;;60.47;30.85;;;;;;;2.86;100.00;95218.63;5045113;28;20052;-47
2022/02/16 06:55:50;;;;;;;50.35;22.23;;;;;;;2.94;99.88;95219.53;5044961;28;20498;-48
2022/02/16 06:58:35;;;;;;;42.58;20.35;;;;;;;3.09;99.73;95225.50;5040846;28;20048;-48
2022/02/16 07:01:02;;;;;;;57.20;24.02;;;;;;;3.21;99.42;95218.94;5043348;28;20052;-49
2022/02/16 07:03:29;;;;;;;118.32;41.22;;;;;;;3.24;98.89;95233.22;5057228;28;20055;-48
2022/02/16 07:06:05;;;;;;;61.67;26.98;;;;;;;3.37;98.90;95218.00;5052550;28;20044;-49
2022/02/16 07:08:32;;;;;;;44.13;21.73;;;;;;;3.33;98.52;95221.09;5046056;28;20126;-47
2022/02/16 07:11:02;;;;;;;45.42;21.90;;;;;;;3.34;97.77;95209.84;5043736;28;20052;-46
2022/02/16 07:13:29;;;;;;;38.08;19.17;;;;;;;3.37;96.74;95212.84;5046916;28;20041;-48
2022/02/16 07:15:56;;;;;;;38.63;17.50;;;;;;;3.44;96.23;95202.66;5042352;28;20043;-46
2022/02/16 07:18:27;;;;;;;37.85;17.60;;;;;;;3.59;96.00;95200.88;5044195;28;20675;-46
2022/02/16 07:21:08;;;;;;;41.75;19.65;;;;;;;3.73;95.97;95195.91;5045041;28;20115;-47
2022/02/16 07:23:36;;;;;;;39.30;20.02;;;;;;;3.86;96.67;95185.75;5046793;28;20139;-47
2022/02/16 07:26:04;;;;;;;39.55;19.92;;;;;;;4.00;96.49;95187.50;5048104;28;20043;-46
2022/02/16 07:28:33;;;;;;;44.28;18.50;;;;;;;4.16;96.21;95175.34;5056526;28;20119;-46
2022/02/16 07:31:00;;;;;;;38.72;19.35;;;;;;;4.27;96.00;95177.47;5045923;28;20111;-48
2022/02/16 07:33:28;;;;;;;78.60;40.13;;;;;;;4.43;95.62;95175.63;5043371;28;20061;-46
2022/02/16 07:35:54;;;;;;;69.07;34.53;;;;;;;4.56;94.69;95181.72;5053675;28;20045;-47
2022/02/16 07:38:21;;;;;;;75.38;38.20;;;;;;;4.56;94.41;95183.50;5043176;28;20051;-47
2022/02/16 07:40:48;;;;;;;84.72;39.05;;;;;;;4.35;94.05;95190.25;5050359;28;20070;-48
2022/02/16 07:43:19;;;;;;;120.90;53.63;;;;;;;4.17;94.56;95193.22;5040828;28;20477;-50
2022/02/16 07:46:04;;;;;;;48.25;23.95;;;;;;;3.97;94.65;95198.16;5042164;28;20060;-47
2022/02/16 07:48:33;;;;;;;58.42;28.75;;;;;;;3.94;94.72;95184.84;5044055;28;20055;-46
2022/02/16 07:51:11;;;;;;;42.83;21.52;;;;;;;4.09;94.75;95200.25;5042445;28;20048;-50
2022/02/16 07:54:13;;;;;;;30.05;16.83;;;;;;;3.60;96.53;95194.75;5046783;28;20049;-47
2022/02/16 07:56:45;;;;;;;37.60;18.67;;;;;;;3.74;97.09;95197.47;5045689;28;20045;-51
2022/02/16 07:59:16;;;;;;;38.40;19.83;;;;;;;3.82;97.32;95194.81;5045326;28;20137;-45
2022/02/16 08:01:43;;;;;;;39.13;19.75;;;;;;;3.98;97.74;95189.47;5045574;28;20060;-48
2022/02/16 08:04:17;;;;;;;43.08;20.83;;;;;;;3.62;97.64;95141.28;5044180;28;20049;-47
2022/02/16 08:06:49;;;;;;;48.05;19.50;;;;;;;4.06;97.30;95187.75;5044576;28;20136;-46
2022/02/16 08:09:17;;;;;;;43.08;21.20;;;;;;;4.26;97.64;95181.03;5044701;28;20061;-47
2022/02/16 08:11:45;;;;;;;49.47;23.05;;;;;;;4.50;97.21;95179.06;5047292;28;20514;-46
2022/02/16 08:14:14;;;;;;;49.75;21.83;;;;;;;4.77;95.98;95173.19;5045058;28;20045;-46
2022/02/16 08:16:50;;;;;;;48.08;22.75;;;;;;;5.01;95.10;95172.97;5041001;28;20045;-47
2022/02/16 08:19:18;;;;;;;47.97;24.05;;;;;;;5.22;94.11;95172.09;5044055;28;20052;-46
2022/02/16 08:21:46;;;;;;;43.65;23.20;;;;;;;5.43;93.26;95179.00;5051983;28;20052;-47
2022/02/16 08:24:13;;;;;;;50.42;24.27;;;;;;;5.65;92.85;95174.53;5044496;28;20102;-46
2022/02/16 08:26:43;;;;;;;49.50;23.60;;;;;;;5.78;91.29;95169.44;5044545;28;20043;-48
2022/02/16 08:29:14;;;;;;;45.65;23.27;;;;;;;6.18;90.70;95163.66;5044518;28;20792;-46
2022/02/16 08:31:45;;;;;;;51.55;23.25;;;;;;;6.52;90.00;95165.31;5041995;28;20471;-52
2022/02/16 08:34:35;;;;;;;40.60;20.40;;;;;;;6.69;86.32;95171.69;5040227;28;20056;-47
2022/02/16 08:37:05;;;;;;;47.80;24.20;;;;;;;6.77;85.96;95156.97;5042206;28;20571;-46
2022/02/16 08:39:32;;;;;;;48.08;24.15;;;;;;;6.98;85.67;95169.72;5042343;28;20041;-47
2022/02/16 08:41:59;;;;;;;55.53;25.90;;;;;;;7.15;85.50;95162.34;5050410;28;20064;-46
2022/02/16 08:44:26;;;;;;;43.05;21.50;;;;;;;7.42;85.04;95170.09;5047762;28;20044;-48
2022/02/16 08:46:52;;;;;;;44.03;22.15;;;;;;;7.65;83.86;95167.84;5043258;28;20502;-47
2022/02/16 08:49:19;;;;;;;39.30;19.70;;;;;;;7.85;82.98;95159.19;5042311;28;20048;-46
2022/02/16 08:51:46;;;;;;;47.47;20.40;;;;;;;8.08;82.37;95158.69;5043886;28;21015;-48
2022/02/16 08:54:13;;;;;;;36.15;18.50;;;;;;;8.31;81.98;95157.38;5047702;28;20732;-49
2022/02/16 08:56:44;;;;;;;35.95;19.83;;;;;;;8.68;81.78;95148.00;5041781;28;20041;-50
2022/02/16 08:59:11;;;;;;;41.53;21.35;;;;;;;9.01;79.67;95156.53;5045573;28;20071;-49
2022/02/16 09:01:38;;;;;;;35.75;17.50;;;;;;;9.18;78.15;95142.81;5048136;28;20126;-46
2022/02/16 09:04:06;;;;;;;53.90;26.55;;;;;;;9.30;77.14;95140.28;5045264;28;20141;-46
2022/02/16 09:06:34;;;;;;;49.22;25.20;;;;;;;9.10;75.57;95139.69;5048787;28;20052;-46
2022/02/16 09:09:03;;;;;;;51.40;24.98;;;;;;;8.71;76.58;95142.34;5053641;28;20501;-46
2022/02/16 09:11:30;;;;;;;47.67;24.45;;;;;;;8.53;78.38;95124.91;5046333;28;20434;-48
2022/02/16 09:13:58;;;;;;;39.08;18.52;;;;;;;9.02;78.75;95139.94;5042293;28;20060;-49
2022/02/16 09:16:25;;;;;;;22.27;12.57;;;;;;;9.45;76.27;95136.53;5044546;28;20523;-48
2022/02/16 09:18:52;;;;;;;25.92;12.85;;;;;;;9.78;74.53;95136.19;5042716;28;20079;-47
2022/02/16 09:21:20;;;;;;;27.95;14.80;;;;;;;10.05;75.04;95136.66;5045931;28;20107;-49
2022/02/16 09:23:49;;;;;;;23.95;11.25;;;;;;;10.22;71.21;95141.25;5044145;28;20073;-47
2022/02/16 09:26:16;;;;;;;19.55;10.38;;;;;;;10.39;70.17;95137.03;5055711;28;20087;-49
2022/02/16 09:28:43;;;;;;;19.13;10.73;;;;;;;10.51;70.61;95113.63;5043876;28;20217;-46
2022/02/16 09:31:10;;;;;;;20.52;10.65;;;;;;;10.63;68.20;95129.28;5042467;28;20071;-45
2022/02/16 09:33:37;;;;;;;16.25;9.55;;;;;;;10.62;67.67;95119.88;5045510;28;20041;-46
2022/02/16 09:36:04;;;;;;;19.10;11.10;;;;;;;10.65;68.52;95124.66;5048063;28;20045;-46
2022/02/16 09:38:31;;;;;;;24.33;11.50;;;;;;;10.73;68.42;95121.69;5050655;28;20470;-45
2022/02/16 09:40:58;;;;;;;25.77;11.57;;;;;;;10.72;67.19;95125.34;5043398;28;20414;-45
2022/02/16 09:43:25;;;;;;;21.85;9.40;;;;;;;10.66;67.33;95115.81;5049541;28;20049;-45
2022/02/16 09:45:55;;;;;;;16.80;10.00;;;;;;;10.64;67.99;95102.22;5044465;28;20048;-44
2022/02/16 09:48:23;;;;;;;14.05;8.98;;;;;;;10.55;67.76;95108.75;5043776;28;20051;-46
2022/02/16 09:50:52;;;;;;;16.95;9.23;;;;;;;10.51;68.22;95109.22;5047780;28;20036;-46
2022/02/16 09:53:29;;;;;;;21.98;10.30;;;;;;;10.63;68.08;95105.84;5050741;28;20106;-46
2022/02/16 09:56:02;;;;;;;16.52;9.63;;;;;;;10.63;67.25;95090.22;5048964;28;20048;-49
2022/02/16 09:58:29;;;;;;;15.10;9.65;;;;;;;10.61;68.18;95087.06;5045658;28;20041;-52
2022/02/16 10:01:23;;;;;;;16.85;9.30;;;;;;;10.64;67.63;95086.59;5047828;28;20044;-51
2022/02/16 10:04:02;;;;;;;19.92;9.75;;;;;;;10.66;68.11;95084.53;5036164;28;20049;-45
2022/02/16 10:06:44;;;;;;;16.77;8.95;;;;;;;10.70;66.54;95081.28;5040070;28;20033;-47
2022/02/16 10:09:25;;;;;;;16.98;8.68;;;;;;;10.76;65.96;95079.56;5047067;28;20056;-49
2022/02/16 10:11:55;;;;;;;16.45;9.63;;;;;;;10.83;66.12;95079.47;5046233;28;20503;-47
2022/02/16 10:14:44;;;;;;;18.17;9.80;;;;;;;11.00;65.72;95084.78;5043872;28;20098;-48
2022/02/16 10:17:17;;;;;;;19.23;11.18;;;;;;;11.19;64.24;95094.09;5042258;28;20049;-49
2022/02/16 10:19:58;;;;;;;18.52;10.45;;;;;;;11.29;63.82;95083.88;5044776;28;20064;-51
2022/02/16 10:22:39;;;;;;;22.92;12.63;;;;;;;11.37;64.52;95085.34;5046438;28;20049;-46
2022/02/16 10:25:12;;;;;;;14.85;8.45;;;;;;;11.37;62.49;95074.13;5045382;28;20045;-49
2022/02/16 10:27:39;;;;;;;16.58;8.38;;;;;;;11.35;62.38;95071.75;5045905;28;20049;-45
2022/02/16 10:30:14;;;;;;;15.40;8.55;;;;;;;11.49;62.01;95074.91;5052186;28;20051;-46
2022/02/16 10:32:41;;;;;;;18.17;10.18;;;;;;;11.60;61.64;95058.44;5044933;28;20049;-45
2022/02/16 10:35:08;;;;;;;18.95;12.00;;;;;;;11.86;60.69;95067.50;5048361;28;20061;-47
2022/02/16 10:37:40;;;;;;;13.27;8.43;;;;;;;12.07;59.87;95060.09;5047336;28;20051;-45
2022/02/16 10:40:16;;;;;;;14.73;8.45;;;;;;;12.40;59.30;95067.19;5048008;28;20139;-48
2022/02/16 10:42:58;;;;;;;15.65;10.18;;;;;;;12.58;60.10;95053.09;5048633;28;20049;-48
2022/02/16 10:45:29;;;;;;;20.13;9.57;;;;;;;12.62;59.13;95049.00;5047413;28;20057;-45
2022/02/16 10:48:05;;;;;;;19.13;11.07;;;;;;;12.65;58.69;95042.50;5046962;28;20475;-48
2022/02/16 10:50:39;;;;;;;15.57;8.88;;;;;;;12.66;57.92;95044.09;5044487;28;20053;-46
2022/02/16 10:53:08;;;;;;;21.90;10.73;;;;;;;12.70;57.51;95039.19;5045894;28;20041;-49
2022/02/16 10:55:48;;;;;;;20.83;11.15;;;;;;;12.72;56.35;95037.91;5043553;28;20126;-47
2022/02/16 10:58:21;;;;;;;15.73;9.80;;;;;;;12.72;57.67;95017.00;5043523;28;20036;-47
2022/02/16 11:00:56;;;;;;;17.98;10.18;;;;;;;12.75;56.89;95003.47;5043053;28;20495;-46
2022/02/16 11:03:29;;;;;;;16.15;9.60;;;;;;;12.89;56.36;95011.75;5043485;28;20052;-48
2022/02/16 11:05:58;;;;;;;17.15;11.50;;;;;;;12.99;56.67;95000.63;5043754;28;20049;-48
2022/02/16 11:08:27;;;;;;;27.00;12.25;;;;;;;13.06;55.11;94996.03;5044139;28;20065;-48
2022/02/16 11:11:16;;;;;;;20.73;12.02;;;;;;;13.01;55.69;94993.34;5043058;28;20068;-48
2022/02/16 11:13:53;;;;;;;21.52;12.23;;;;;;;13.02;55.31;94979.25;5044300;28;20497;-51
2022/02/16 11:16:20;;;;;;;22.58;12.70;;;;;;;13.28;54.54;94984.78;5042670;28;20060;-47
2022/02/16 11:18:53;;;;;;;16.13;9.45;;;;;;;13.57;54.11;94980.94;5040945;28;20049;-49
2022/02/16 11:21:22;;;;;;;16.27;8.55;;;;;;;13.92;53.39;94977.13;5043567;28;20072;-49
2022/02/16 11:23:50;;;;;;;27.30;14.43;;;;;;;14.37;52.67;94972.53;5042916;28;20051;-45
2022/02/16 11:26:34;;;;;;;17.65;10.57;;;;;;;14.74;49.93;94968.34;5041162;28;20458;-49
2022/02/16 11:29:07;;;;;;;18.02;10.73;;;;;;;14.87;50.32;94960.00;5041619;28;20067;-49
2022/02/16 11:31:38;;;;;;;15.80;9.90;;;;;;;15.08;49.61;94959.06;5044741;28;20056;-48
2022/02/16 11:34:11;;;;;;;21.92;12.98;;;;;;;15.07;48.82;94952.25;5043675;28;20048;-48